Time;durP1;ratioP1;P1;durP2;ratioP2;P2;SDS_P1;SDS_P2;PMS_P1;PMS_P2;Temp;Humidity;BMP_temperature;BMP_pressure;BME280_temperature;BME280_humidity;BME280_pressure;Samples;Min_cycle;Max_cycle;Signal;HPM_P1;HPM_P2
2023/04/02 00:01:36;;;;;;;4.57;2.85;;;;;;;4.79;100.00;92293.91;5073006;28;20048;-74
2023/04/02 00:04:13;;;;;;;3.95;3.10;;;;;;;4.67;100.00;92286.06;5071063;28;20041;-75
2023/04/02 00:06:43;;;;;;;6.00;4.25;;;;;;;4.62;100.00;92277.44;5071225;28;20489;-74
2023/04/02 00:09:38;;;;;;;3.83;3.13;;;;;;;4.64;100.00;92281.34;5072930;28;20378;-73
2023/04/02 00:12:15;;;;;;;;;;;;;;;4.64;100.00;92288.22;5040040;28;20242;-75
2023/04/02 00:14:51;;;;;;;2.83;1.92;;;;;;;4.60;100.00;92285.28;5072532;28;19920;-73
2023/04/02 00:17:19;;;;;;;3.78;2.03;;;;;;;4.62;100.00;92278.25;5072689;28;20048;-75
2023/04/02 00:19:50;;;;;;;2.45;1.90;;;;;;;4.72;100.00;92282.16;5072165;28;20045;-74
2023/04/02 00:22:19;;;;;;;4.03;2.20;;;;;;;4.71;100.00;92276.28;5072669;28;20394;-75
2023/04/02 00:24:50;;;;;;;8.30;3.88;;;;;;;4.71;100.00;92275.50;5072528;28;20086;-74
2023/04/02 00:27:17;;;;;;;5.22;3.40;;;;;;;4.74;100.00;92272.56;5072326;28;20455;-73
2023/04/02 00:29:48;;;;;;;5.97;3.35;;;;;;;4.68;100.00;92271.59;5083385;28;20579;-74
2023/04/02 00:32:21;;;;;;;4.38;2.83;;;;;;;4.71;100.00;92272.97;5073509;28;20071;-74
2023/04/02 00:34:51;;;;;;;5.05;3.10;;;;;;;4.71;100.00;92266.09;5071946;28;20045;-74
2023/04/02 00:37:26;;;;;;;3.63;2.58;;;;;;;4.70;100.00;92266.28;5072314;28;20048;-74
2023/04/02 00:40:00;;;;;;;5.27;3.23;;;;;;;4.60;100.00;92264.16;5071737;28;20135;-73
2023/04/02 00:42:30;;;;;;;5.05;3.58;;;;;;;4.54;100.00;92271.59;5071754;28;20143;-74
2023/04/02 00:44:57;;;;;;;6.93;3.70;;;;;;;4.47;100.00;92262.38;5071556;28;20555;-74
2023/04/02 00:47:26;;;;;;;5.18;3.60;;;;;;;4.51;100.00;92261.03;5071773;28;20519;-74
2023/04/02 00:49:59;;;;;;;6.70;3.67;;;;;;;4.44;100.00;92253.38;5071876;28;20082;-73
2023/04/02 00:52:29;;;;;;;8.02;4.00;;;;;;;4.46;100.00;92250.66;5072092;28;20049;-73
2023/04/02 00:55:02;;;;;;;6.78;3.83;;;;;;;4.53;100.00;92267.47;5071892;28;20136;-74
2023/04/02 00:57:30;;;;;;;4.03;3.00;;;;;;;4.49;100.00;92257.91;5071883;28;20048;-74
2023/04/02 00:59:59;;;;;;;4.47;3.58;;;;;;;4.38;100.00;92257.50;5071644;28;20485;-72
2023/04/02 01:02:31;;;;;;;5.05;3.00;;;;;;;4.37;100.00;92266.13;5070945;28;20040;-73
2023/04/02 01:04:59;;;;;;;4.82;2.85;;;;;;;4.30;100.00;92259.47;5071613;28;20045;-73
2023/04/02 01:07:47;;;;;;;4.80;2.42;;;;;;;4.25;100.00;92260.03;5071522;28;20097;-73
2023/04/02 01:10:35;;;;;;;3.70;2.40;;;;;;;4.07;100.00;92227.56;5071332;28;20048;-73
2023/04/02 01:13:12;;;;;;;4.32;2.90;;;;;;;4.28;100.00;92265.53;5071394;28;20040;-73
2023/04/02 01:15:42;;;;;;;4.15;2.40;;;;;;;4.28;100.00;92264.72;5071215;28;20102;-73
2023/04/02 01:18:30;;;;;;;4.00;2.30;;;;;;;4.26;100.00;92270.00;5081339;28;20098;-74
2023/04/02 01:21:27;;;;;;;4.47;2.58;;;;;;;4.33;100.00;92272.56;5071553;28;20510;-74
2023/04/02 01:24:02;;;;;;;5.05;3.42;;;;;;;4.31;100.00;92263.56;5049802;28;20044;-75
2023/04/02 01:26:52;;;;;;;5.93;3.80;;;;;;;4.23;100.00;92272.16;5070885;28;20610;-75
2023/04/02 01:29:23;;;;;;;5.47;3.30;;;;;;;4.30;100.00;92275.47;5079087;28;20094;-73
2023/04/02 01:31:52;;;;;;;7.20;3.40;;;;;;;4.35;100.00;92275.69;5075990;28;20048;-72
2023/04/02 01:34:24;;;;;;;5.18;3.00;;;;;;;4.12;100.00;92241.25;5071194;28;20095;-73
2023/04/02 01:37:06;;;;;;;3.42;2.47;;;;;;;4.30;100.00;92264.53;5070792;28;20051;-73
2023/04/02 01:39:45;;;;;;;6.10;2.40;;;;;;;4.33;100.00;92269.22;5071394;28;20417;-73
2023/04/02 01:42:20;;;;;;;4.22;2.65;;;;;;;4.26;100.00;92259.84;5071479;28;20048;-73
2023/04/02 01:44:50;;;;;;;4.05;2.53;;;;;;;4.23;100.00;92265.31;5070485;28;20092;-73
2023/04/02 01:47:19;;;;;;;4.00;1.90;;;;;;;4.14;100.00;92269.00;5071216;28;20044;-73
2023/04/02 01:49:47;;;;;;;2.85;1.70;;;;;;;4.09;100.00;92271.34;5070911;28;20047;-73
2023/04/02 01:52:18;;;;;;;4.13;2.40;;;;;;;4.05;100.00;92267.63;5070938;28;20098;-73
2023/04/02 01:54:46;;;;;;;5.75;3.20;;;;;;;4.07;100.00;92268.22;5071387;28;20098;-73
2023/04/02 01:57:13;;;;;;;5.40;3.55;;;;;;;4.10;100.00;92276.25;5071652;28;20052;-73
2023/04/02 01:59:40;;;;;;;5.70;3.50;;;;;;;4.00;100.00;92250.41;5070890;28;20102;-73
2023/04/02 02:02:12;;;;;;;5.35;3.17;;;;;;;4.07;100.00;92263.16;5070573;28;20094;-74
2023/04/02 02:04:40;;;;;;;7.22;3.17;;;;;;;4.10;100.00;92271.16;5070584;28;20049;-73
2023/04/02 02:07:13;;;;;;;4.30;2.85;;;;;;;4.12;100.00;92276.06;5070424;28;20052;-74
2023/04/02 02:09:41;;;;;;;3.95;2.85;;;;;;;4.14;100.00;92274.88;5070379;28;20131;-73
2023/04/02 02:12:12;;;;;;;5.43;3.17;;;;;;;4.12;100.00;92266.66;5070510;28;20097;-74
2023/04/02 02:14:39;;;;;;;4.15;2.85;;;;;;;4.12;100.00;92281.16;5070101;28;20495;-74
2023/04/02 02:17:14;;;;;;;3.83;2.60;;;;;;;4.06;100.00;92269.97;5070028;28;20501;-74
2023/04/02 02:19:45;;;;;;;5.10;3.28;;;;;;;4.13;100.00;92275.06;5070315;28;20044;-73
2023/04/02 02:22:18;;;;;;;4.85;3.47;;;;;;;4.11;100.00;92282.88;5070276;28;20053;-74
2023/04/02 02:24:45;;;;;;;4.95;2.97;;;;;;;4.11;100.00;92279.56;5070500;28;20606;-74
2023/04/02 02:27:44;;;;;;;4.22;2.80;;;;;;;4.14;100.00;92267.28;5070224;28;20460;-74
2023/04/02 02:30:18;;;;;;;4.68;2.78;;;;;;;4.07;100.00;92274.06;5083529;28;20127;-74
2023/04/02 02:32:52;;;;;;;5.55;4.28;;;;;;;4.03;100.00;92274.66;5070644;28;20051;-75
2023/04/02 02:35:23;;;;;;;5.47;4.32;;;;;;;4.08;100.00;92273.09;5070483;28;20125;-73
2023/04/02 02:37:56;;;;;;;5.22;4.03;;;;;;;4.10;100.00;92273.72;5070007;28;20094;-72
2023/04/02 02:40:31;;;;;;;19.42;10.02;;;;;;;4.08;100.00;92264.72;5069505;28;21319;-72
2023/04/02 02:43:03;;;;;;;18.60;9.43;;;;;;;4.09;100.00;92266.28;5069995;28;20141;-73
2023/04/02 02:45:38;;;;;;;11.85;6.82;;;;;;;4.13;100.00;92272.53;5069368;28;20045;-74
2023/04/02 02:48:13;;;;;;;10.02;5.53;;;;;;;4.13;100.00;92270.00;5069724;28;20045;-72
2023/04/02 02:50:41;;;;;;;9.93;5.47;;;;;;;4.17;100.00;92263.53;5069096;28;20564;-73
2023/04/02 02:53:19;;;;;;;10.45;4.72;;;;;;;4.20;100.00;92263.16;5069860;28;20378;-73
2023/04/02 02:55:47;;;;;;;5.78;3.15;;;;;;;4.06;100.00;92242.03;5069613;28;20048;-73
2023/04/02 02:58:17;;;;;;;7.18;4.15;;;;;;;3.99;100.00;92252.16;5069378;28;20053;-74
2023/04/02 03:00:46;;;;;;;5.43;3.42;;;;;;;3.97;100.00;92268.56;5069470;28;20063;-74
2023/04/02 03:03:18;;;;;;;5.85;3.40;;;;;;;3.92;100.00;92271.72;5069754;28;20044;-73
2023/04/02 03:05:52;;;;;;;4.95;2.90;;;;;;;3.95;100.00;92268.00;5069282;28;20100;-73
2023/04/02 03:08:27;;;;;;;5.72;3.55;;;;;;;3.94;100.00;92274.81;5069043;28;20094;-74
2023/04/02 03:11:00;;;;;;;6.32;5.28;;;;;;;3.78;100.00;92273.44;5069403;28;20171;-73
2023/04/02 03:13:34;;;;;;;8.07;5.00;;;;;;;3.80;100.00;92268.94;5069550;28;20272;-73
2023/04/02 03:16:06;;;;;;;7.35;5.13;;;;;;;3.82;100.00;92276.38;5068892;28;20052;-73
2023/04/02 03:18:43;;;;;;;7.05;4.63;;;;;;;3.83;100.00;92268.56;5069711;28;20045;-73
2023/04/02 03:21:17;;;;;;;5.07;3.60;;;;;;;3.90;100.00;92270.31;5069018;28;20094;-73
2023/04/02 03:23:47;;;;;;;7.10;4.60;;;;;;;3.85;100.00;92265.84;5068862;28;20492;-73
2023/04/02 03:26:19;;;;;;;6.00;4.05;;;;;;;3.87;100.00;92269.75;5069535;28;20133;-74
2023/04/02 03:28:50;;;;;;;8.50;4.60;;;;;;;3.87;100.00;92274.84;5072026;28;20492;-75
2023/04/02 03:31:24;;;;;;;7.47;4.38;;;;;;;3.85;100.00;92278.53;5078169;28;20558;-72
2023/04/02 03:33:56;;;;;;;6.68;4.18;;;;;;;3.85;100.00;92279.31;5068862;28;20094;-75
2023/04/02 03:36:28;;;;;;;8.32;4.90;;;;;;;3.86;100.00;92275.81;5069339;28;20114;-73
2023/04/02 03:39:04;;;;;;;8.63;5.65;;;;;;;3.83;100.00;92281.25;5068843;28;20050;-73
2023/04/02 03:41:38;;;;;;;6.60;4.97;;;;;;;3.85;100.00;92281.06;5069230;28;20102;-73
2023/04/02 03:44:11;;;;;;;8.55;5.20;;;;;;;3.77;100.00;92278.69;5068722;28;20123;-73
2023/04/02 03:46:42;;;;;;;9.00;5.25;;;;;;;3.79;100.00;92282.59;5081133;28;20355;-72
2023/04/02 03:49:17;;;;;;;7.97;5.03;;;;;;;3.74;100.00;92282.41;5076112;28;20184;-73
2023/04/02 03:51:52;;;;;;;9.93;4.93;;;;;;;3.71;100.00;92281.00;5075109;28;20646;-72
2023/04/02 03:54:20;;;;;;;6.43;4.25;;;;;;;3.64;100.00;92271.81;5089172;28;20048;-72
2023/04/02 03:56:47;;;;;;;6.70;4.18;;;;;;;3.58;100.00;92275.91;5086322;28;20047;-73
2023/04/02 03:59:20;;;;;;;6.53;3.67;;;;;;;3.59;100.00;92280.00;5088940;28;20058;-72
2023/04/02 04:01:53;;;;;;;6.63;4.28;;;;;;;3.56;100.00;92281.16;5075307;28;20512;-72
2023/04/02 04:04:23;;;;;;;6.15;4.50;;;;;;;3.53;100.00;92280.75;5088914;28;20048;-72
2023/04/02 04:06:51;;;;;;;7.78;4.97;;;;;;;3.33;100.00;92245.91;5070946;28;20447;-73
2023/04/02 04:09:24;;;;;;;6.30;3.70;;;;;;;3.52;100.00;92281.75;5068393;28;20509;-72
2023/04/02 04:11:53;;;;;;;6.07;4.05;;;;;;;3.47;100.00;92284.81;5068842;28;20055;-72
2023/04/02 04:14:28;;;;;;;4.40;3.30;;;;;;;3.35;100.00;92271.91;5088877;28;20052;-72
2023/04/02 04:17:03;;;;;;;4.30;2.80;;;;;;;3.47;100.00;92289.91;5071675;28;20122;-73
2023/04/02 04:19:38;;;;;;;8.60;3.63;;;;;;;3.43;100.00;92279.34;5068519;28;20044;-73
2023/04/02 04:22:10;;;;;;;9.85;4.72;;;;;;;3.28;100.00;92273.63;5068703;28;20114;-74
2023/04/02 04:24:38;;;;;;;9.70;5.15;;;;;;;3.41;100.00;92290.66;5068481;28;20515;-74
2023/04/02 04:27:11;;;;;;;9.82;5.30;;;;;;;3.40;100.00;92297.50;5072799;28;20083;-72
2023/04/02 04:29:46;;;;;;;13.52;6.57;;;;;;;3.34;100.00;92299.03;5087646;28;20036;-72
2023/04/02 04:32:25;;;;;;;14.82;7.57;;;;;;;3.25;100.00;92299.38;5088626;28;20052;-72
2023/04/02 04:34:59;;;;;;;17.60;7.20;;;;;;;3.27;100.00;92303.31;5087811;28;20044;-73
2023/04/02 04:37:34;;;;;;;12.20;6.40;;;;;;;3.26;100.00;92303.47;5091486;28;20442;-72
2023/04/02 04:40:08;;;;;;;13.25;6.13;;;;;;;3.21;100.00;92304.81;5091784;28;20051;-71
2023/04/02 04:42:39;;;;;;;10.25;6.03;;;;;;;3.21;100.00;92306.59;5092449;28;20381;-71
2023/04/02 04:45:13;;;;;;;9.80;6.10;;;;;;;3.20;100.00;92305.78;5092145;28;20047;-71
2023/04/02 04:47:47;;;;;;;20.88;12.93;;;;;;;3.16;100.00;92304.59;5091526;28;20052;-71
2023/04/02 04:50:21;;;;;;;31.35;17.90;;;;;;;3.16;100.00;92307.13;5092030;28;20114;-71
2023/04/02 04:52:48;;;;;;;36.40;22.20;;;;;;;3.04;100.00;92311.16;5092197;28;20056;-72
2023/04/02 04:55:26;;;;;;;30.95;18.10;;;;;;;3.13;100.00;92309.25;5092201;28;20074;-71
2023/04/02 04:57:57;;;;;;;26.02;15.98;;;;;;;3.21;100.00;92311.66;5092137;28;20546;-71
2023/04/02 05:00:32;;;;;;;21.20;14.57;;;;;;;3.07;100.00;92275.28;5092324;28;20048;-71
2023/04/02 05:03:08;;;;;;;25.50;15.70;;;;;;;3.33;100.00;92305.09;5092010;28;20097;-71
2023/04/02 05:05:40;;;;;;;26.08;15.93;;;;;;;3.34;100.00;92300.81;5092012;28;20040;-72
2023/04/02 05:08:13;;;;;;;20.23;14.40;;;;;;;3.44;100.00;92306.31;5091868;28;20098;-72
2023/04/02 05:10:47;;;;;;;22.05;13.73;;;;;;;3.29;100.00;92285.34;5091345;28;20085;-72
2023/04/02 05:13:28;;;;;;;21.25;13.50;;;;;;;3.54;100.00;92310.25;5092375;28;20083;-72
2023/04/02 05:16:10;;;;;;;19.27;13.20;;;;;;;3.74;100.00;92323.84;5092278;28;20408;-72
2023/04/02 05:18:49;;;;;;;20.08;12.43;;;;;;;3.82;100.00;92319.56;5092384;28;20121;-72
2023/04/02 05:21:22;;;;;;;16.65;11.02;;;;;;;3.92;100.00;92319.97;5091539;28;20127;-72
2023/04/02 05:23:55;;;;;;;14.73;9.57;;;;;;;4.12;100.00;92325.13;5091839;28;20523;-72
2023/04/02 05:26:26;;;;;;;17.08;11.15;;;;;;;4.28;100.00;92336.72;5092113;28;20048;-72
2023/04/02 05:28:59;;;;;;;19.40;10.80;;;;;;;4.46;100.00;92329.47;5091476;28;20443;-72
2023/04/02 05:31:35;;;;;;;14.55;8.80;;;;;;;4.59;100.00;92334.59;5091226;28;20048;-72
2023/04/02 05:34:02;;;;;;;20.42;12.50;;;;;;;4.68;100.00;92330.88;5091024;28;20048;-72
2023/04/02 05:36:31;;;;;;;18.60;11.02;;;;;;;4.79;100.00;92326.19;5091137;28;20470;-72
2023/04/02 05:39:00;;;;;;;17.17;10.30;;;;;;;4.74;100.00;92298.00;5078157;28;20056;-72
2023/04/02 05:41:30;;;;;;;11.98;8.13;;;;;;;5.14;100.00;92336.13;5091273;28;20055;-73
2023/04/02 05:44:05;;;;;;;11.65;8.27;;;;;;;5.21;100.00;92331.84;5091357;28;20123;-72
2023/04/02 05:46:37;;;;;;;11.20;7.68;;;;;;;5.47;100.00;92340.41;5091355;28;20117;-72
2023/04/02 05:49:10;;;;;;;9.95;7.20;;;;;;;5.66;100.00;92340.56;5091278;28;20135;-72
2023/04/02 05:52:07;;;;;;;12.45;8.18;;;;;;;5.74;100.00;92347.97;5090652;28;20040;-72
2023/04/02 05:54:40;;;;;;;15.95;10.27;;;;;;;5.71;100.00;92347.59;5092294;28;20105;-72
2023/04/02 05:57:12;;;;;;;12.63;8.65;;;;;;;5.84;100.00;92341.69;5091324;28;20047;-72
2023/04/02 05:59:43;;;;;;;11.55;8.32;;;;;;;5.97;100.00;92323.78;5090338;28;20048;-72
2023/04/02 06:02:21;;;;;;;13.38;8.27;;;;;;;6.10;100.00;92340.00;5091036;28;20048;-72
2023/04/02 06:04:55;;;;;;;10.25;7.32;;;;;;;6.21;100.00;92348.81;5090646;28;20040;-72
2023/04/02 06:07:27;;;;;;;13.27;9.20;;;;;;;6.39;100.00;92354.00;5090196;28;20052;-72
2023/04/02 06:10:02;;;;;;;20.58;10.38;;;;;;;6.49;100.00;92345.88;5090902;28;20044;-72
2023/04/02 06:12:35;;;;;;;11.05;7.50;;;;;;;6.50;100.00;92342.38;5090668;28;20066;-72
2023/04/02 06:15:02;;;;;;;9.18;5.25;;;;;;;6.79;100.00;92340.22;5090096;28;20075;-72
2023/04/02 06:17:29;;;;;;;7.55;5.80;;;;;;;7.02;100.00;92333.75;5090369;28;20110;-72
2023/04/02 06:19:58;;;;;;;9.77;5.50;;;;;;;6.89;100.00;92338.97;5090546;28;20056;-72
2023/04/02 06:22:34;;;;;;;8.32;5.88;;;;;;;6.94;100.00;92323.78;5090633;28;20052;-72
2023/04/02 06:25:05;;;;;;;19.08;8.80;;;;;;;7.42;100.00;92335.19;5090220;28;20040;-72
2023/04/02 06:27:34;;;;;;;9.10;4.88;;;;;;;7.21;100.00;92333.78;5089891;28;20048;-72
2023/04/02 06:30:05;;;;;;;5.93;3.30;;;;;;;7.19;100.00;92343.44;5085952;28;20052;-72
2023/04/02 06:32:32;;;;;;;7.57;3.58;;;;;;;7.48;100.00;92341.19;5074733;28;20136;-72
2023/04/02 06:34:59;;;;;;;7.00;3.55;;;;;;;7.96;100.00;92338.94;5088637;28;20048;-73
2023/04/02 06:37:32;;;;;;;5.93;3.33;;;;;;;8.16;100.00;92339.47;5090097;28;20044;-73
2023/04/02 06:40:00;;;;;;;6.55;3.92;;;;;;;8.36;100.00;92337.66;5089923;28;20129;-72
2023/04/02 06:42:30;;;;;;;7.93;4.38;;;;;;;8.78;100.00;92340.25;5090856;28;20048;-72
2023/04/02 06:44:57;;;;;;;9.15;4.95;;;;;;;9.16;97.70;92345.22;5090044;28;20044;-73
2023/04/02 06:47:32;;;;;;;12.77;6.45;;;;;;;9.05;96.28;92311.69;5090020;28;20044;-73
2023/04/02 06:50:05;;;;;;;9.02;5.13;;;;;;;9.42;95.23;92353.44;5089713;28;20044;-74
2023/04/02 06:52:37;;;;;;;10.23;5.55;;;;;;;9.77;96.09;92352.66;5089996;28;20097;-74
2023/04/02 06:55:27;;;;;;;9.05;4.80;;;;;;;9.83;98.27;92344.06;5089649;28;20048;-73
2023/04/02 06:57:53;;;;;;;6.97;3.70;;;;;;;9.67;89.18;92342.19;5089713;28;20105;-73
2023/04/02 07:00:25;;;;;;;6.32;3.65;;;;;;;9.98;87.52;92360.75;5088660;28;20435;-73
2023/04/02 07:02:55;;;;;;;6.90;3.50;;;;;;;10.32;87.35;92358.28;5089368;28;20097;-73
2023/04/02 07:05:21;;;;;;;6.78;4.28;;;;;;;10.19;83.93;92361.94;5089212;28;20048;-73
2023/04/02 07:07:50;;;;;;;5.85;3.08;;;;;;;10.78;90.13;92357.59;5089324;28;20040;-73
2023/04/02 07:10:19;;;;;;;9.52;3.60;;;;;;;11.22;82.81;92373.16;5089288;28;20047;-73
2023/04/02 07:12:46;;;;;;;6.25;2.40;;;;;;;11.56;71.62;92374.94;5089131;28;20547;-73
2023/04/02 07:15:17;;;;;;;3.17;1.58;;;;;;;11.96;74.35;92370.59;5089335;28;20085;-73
2023/04/02 07:17:44;;;;;;;2.72;1.50;;;;;;;12.37;71.70;92377.25;5089391;28;20044;-73
2023/04/02 07:20:25;;;;;;;7.03;3.40;;;;;;;12.75;72.03;92372.22;5089145;28;20573;-73
2023/04/02 07:22:53;;;;;;;7.78;3.75;;;;;;;13.15;73.87;92380.56;5077604;28;20127;-74
2023/04/02 07:25:20;;;;;;;4.07;2.45;;;;;;;13.27;70.32;92368.28;5088934;28;20048;-74
2023/04/02 07:27:47;;;;;;;3.03;1.00;;;;;;;13.34;65.89;92389.47;5089188;28;20047;-73
2023/04/02 07:30:32;;;;;;;1.92;1.02;;;;;;;13.68;67.88;92377.34;5089146;28;20044;-74
2023/04/02 07:33:16;;;;;;;3.35;0.98;;;;;;;13.02;60.14;92381.75;5088924;28;20113;-73
2023/04/02 07:35:50;;;;;;;1.33;0.65;;;;;;;11.21;65.88;92311.72;5090854;28;20040;-73
2023/04/02 07:38:41;;;;;;;4.00;1.10;;;;;;;12.07;68.90;92384.38;5089363;28;20504;-73
2023/04/02 07:41:08;;;;;;;4.53;1.75;;;;;;;12.42;66.57;92382.47;5089747;28;20044;-73
2023/04/02 07:43:35;;;;;;;7.45;1.40;;;;;;;12.67;68.78;92379.38;5089027;28;20051;-73
2023/04/02 07:46:02;;;;;;;3.80;1.70;;;;;;;13.07;67.79;92381.78;5074353;28;20527;-74
2023/04/02 07:48:29;;;;;;;3.55;1.60;;;;;;;13.00;61.10;92387.13;5089043;28;20048;-73
2023/04/02 07:50:55;;;;;;;6.07;1.80;;;;;;;13.40;66.83;92387.72;5089025;28;20264;-73
2023/04/02 07:53:28;;;;;;;2.78;1.02;;;;;;;13.56;66.28;92385.28;5088363;28;20439;-73
2023/04/02 07:55:57;;;;;;;2.45;1.00;;;;;;;13.55;65.12;92358.69;5089000;28;20051;-74
2023/04/02 07:58:24;;;;;;;4.10;1.30;;;;;;;13.98;63.06;92381.88;5089049;28;20040;-73
2023/04/02 08:00:51;;;;;;;5.18;2.08;;;;;;;14.22;62.78;92384.09;5086390;28;20048;-74
2023/04/02 08:03:17;;;;;;;5.75;2.40;;;;;;;14.47;60.61;92403.28;5089282;28;20044;-73
2023/04/02 08:05:50;;;;;;;6.50;2.70;;;;;;;14.62;61.09;92394.03;5083442;28;20045;-73
2023/04/02 08:08:16;;;;;;;2.20;0.80;;;;;;;13.68;54.85;92409.09;5081308;28;20044;-73
2023/04/02 08:10:43;;;;;;;3.17;1.40;;;;;;;14.11;58.55;92392.78;5090243;28;20040;-74
2023/04/02 08:13:21;;;;;;;1.77;0.75;;;;;;;14.11;54.92;92401.31;5092775;28;20496;-73
2023/04/02 08:16:01;;;;;;;1.25;0.50;;;;;;;13.35;59.26;92391.03;5093179;28;20089;-73
2023/04/02 08:18:29;;;;;;;2.00;0.70;;;;;;;13.01;62.45;92395.66;5093145;28;20055;-73
2023/04/02 08:20:56;;;;;;;3.63;1.38;;;;;;;12.90;61.26;92400.72;5089800;28;20096;-73
2023/04/02 08:23:23;;;;;;;4.68;1.30;;;;;;;12.91;63.95;92386.81;5082412;28;20435;-73
2023/04/02 08:25:51;;;;;;;2.35;1.00;;;;;;;13.08;61.35;92398.81;5092402;28;20036;-73
2023/04/02 08:28:20;;;;;;;3.47;1.00;;;;;;;13.02;60.66;92402.38;5092248;28;20098;-74
2023/04/02 08:30:47;;;;;;;2.33;0.80;;;;;;;13.12;59.51;92381.84;5092717;28;20040;-74
2023/04/02 08:33:22;;;;;;;1.70;0.77;;;;;;;13.06;60.47;92400.88;5081662;28;20156;-74
2023/04/02 08:36:20;;;;;;;7.63;2.50;;;;;;;13.38;64.31;92392.34;5090530;28;20094;-74
2023/04/02 08:38:48;;;;;;;3.50;0.70;;;;;;;13.86;64.07;92401.97;5092095;28;20497;-73
2023/04/02 08:41:37;;;;;;;1.50;0.60;;;;;;;14.21;61.68;92399.81;5093070;28;20135;-73
2023/04/02 08:44:25;;;;;;;2.67;0.60;;;;;;;14.59;58.69;92395.31;5093066;28;20048;-74
2023/04/02 08:47:00;;;;;;;4.65;0.70;;;;;;;14.78;58.29;92394.88;5093672;28;20052;-73
2023/04/02 08:49:32;;;;;;;1.37;0.50;;;;;;;14.91;57.54;92412.47;5093648;28;20071;-72
2023/04/02 08:52:00;;;;;;;1.88;0.80;;;;;;;14.87;56.04;92403.69;5092922;28;20954;-74
2023/04/02 08:54:30;;;;;;;2.63;0.65;;;;;;;14.88;56.15;92401.84;5097919;28;20086;-74
2023/04/02 08:57:01;;;;;;;2.45;1.20;;;;;;;14.74;54.07;92389.41;5096032;28;20092;-75
2023/04/02 08:59:34;;;;;;;2.90;1.00;;;;;;;14.86;56.31;92406.50;5091783;28;20451;-75
2023/04/02 09:02:19;;;;;;;2.90;0.77;;;;;;;14.87;57.42;92398.50;5091756;28;20094;-73
2023/04/02 09:04:45;;;;;;;1.23;0.40;;;;;;;14.79;56.73;92399.00;5091320;28;20048;-73
2023/04/02 09:07:15;;;;;;;2.22;0.90;;;;;;;14.92;57.57;92398.53;5091840;28;20094;-73
2023/04/02 09:09:47;;;;;;;4.93;0.63;;;;;;;15.27;56.84;92401.38;5090452;28;20129;-75
2023/04/02 09:12:24;;;;;;;2.65;0.80;;;;;;;14.86;53.67;92316.78;5091809;28;20450;-74
2023/04/02 09:15:06;;;;;;;2.28;0.60;;;;;;;15.77;53.78;92406.78;5091664;28;20127;-73
2023/04/02 09:17:36;;;;;;;2.45;0.55;;;;;;;16.02;51.02;92407.03;5091871;28;20043;-73
2023/04/02 09:20:17;;;;;;;2.13;0.57;;;;;;;15.40;50.03;92394.91;5091331;28;20051;-72
2023/04/02 09:22:45;;;;;;;1.95;0.80;;;;;;;15.94;51.50;92398.00;5090558;28;20492;-72
2023/04/02 09:25:19;;;;;;;1.00;0.32;;;;;;;15.84;48.11;92401.31;5091547;28;20075;-74
2023/04/02 09:27:48;;;;;;;2.58;0.60;;;;;;;15.96;50.93;92384.78;5091363;28;20584;-74
2023/04/02 09:30:40;;;;;;;2.45;0.70;;;;;;;16.08;51.79;92367.13;5093293;28;20058;-74
2023/04/02 09:33:07;;;;;;;1.75;0.63;;;;;;;16.26;50.21;92388.31;5098888;28;20048;-74
2023/04/02 09:35:36;;;;;;;4.13;0.70;;;;;;;16.45;51.94;92385.13;5090871;28;20052;-73
2023/04/02 09:38:19;;;;;;;2.90;0.73;;;;;;;15.81;50.31;92390.72;5091086;28;20090;-72
2023/04/02 09:40:49;;;;;;;2.15;0.85;;;;;;;15.62;51.23;92392.06;5079961;28;20052;-72
2023/04/02 09:43:18;;;;;;;3.30;0.73;;;;;;;14.62;50.04;92381.88;5090948;28;20044;-72
2023/04/02 09:45:56;;;;;;;3.05;0.60;;;;;;;13.80;53.93;92377.16;5091050;28;20896;-72
2023/04/02 09:48:26;;;;;;;1.58;0.60;;;;;;;13.78;53.44;92384.38;5086280;28;20489;-73
2023/04/02 09:51:05;;;;;;;4.03;1.65;;;;;;;14.12;54.36;92378.88;5082458;28;20496;-72
2023/04/02 09:53:35;;;;;;;4.78;0.57;;;;;;;14.01;58.02;92376.25;5090281;28;20500;-73
2023/04/02 09:56:13;;;;;;;1.40;0.40;;;;;;;13.94;54.61;92360.19;5090497;28;20044;-73
2023/04/02 09:58:42;;;;;;;2.25;0.85;;;;;;;14.15;54.37;92368.81;5090485;28;20048;-72
2023/04/02 10:01:28;;;;;;;4.18;0.90;;;;;;;14.49;55.42;92369.44;5090376;28;20055;-72
2023/04/02 10:03:55;;;;;;;7.10;1.40;;;;;;;14.56;54.58;92365.59;5090671;28;20052;-72
2023/04/02 10:06:22;;;;;;;2.42;0.75;;;;;;;14.78;54.50;92369.78;5090397;28;20535;-73
2023/04/02 10:08:49;;;;;;;4.57;1.30;;;;;;;14.85;54.88;92366.94;5090774;28;20092;-72
2023/04/02 10:11:23;;;;;;;3.95;0.82;;;;;;;15.02;53.78;92371.09;5089334;28;20040;-73
2023/04/02 10:13:58;;;;;;;3.55;0.80;;;;;;;15.20;54.07;92369.81;5090839;28;20133;-73
2023/04/02 10:16:32;;;;;;;3.90;0.68;;;;;;;15.18;54.07;92351.97;5079058;28;20052;-72
2023/04/02 10:19:07;;;;;;;1.58;0.60;;;;;;;15.27;52.35;92359.22;5090454;28;20043;-73
2023/04/02 10:21:40;;;;;;;4.93;0.68;;;;;;;15.48;52.78;92368.53;5090194;28;20044;-73
2023/04/02 10:24:23;;;;;;;22.77;13.32;;;;;;;14.98;51.15;92363.09;5090362;28;20063;-72
2023/04/02 10:27:05;;;;;;;1.60;0.80;;;;;;;15.27;52.39;92372.91;5090152;28;20113;-73
2023/04/02 10:30:01;;;;;;;2.67;0.93;;;;;;;15.29;50.81;92368.28;5089983;28;20102;-73
2023/04/02 10:32:40;;;;;;;5.90;0.88;;;;;;;15.36;52.78;92376.53;5091034;28;20079;-73
2023/04/02 10:35:16;;;;;;;3.63;0.50;;;;;;;15.44;50.85;92377.06;5089487;28;20051;-72
2023/04/02 10:37:55;;;;;;;5.32;1.17;;;;;;;15.43;50.65;92365.94;5080154;28;20058;-72
2023/04/02 10:40:35;;;;;;;7.43;3.00;;;;;;;15.49;52.36;92367.50;5079947;28;20078;-73
2023/04/02 10:43:52;;;;;;;2.90;1.60;;;;;;;15.44;48.88;92361.53;5087901;28;20043;-73
2023/04/02 10:46:25;;;;;;;2.60;0.90;;;;;;;15.36;48.13;92368.00;5027343;28;20053;-73
2023/04/02 10:49:03;;;;;;;6.22;1.42;;;;;;;15.08;52.09;92362.31;5027325;28;20095;-73
2023/04/02 10:51:38;;;;;;;2.72;0.82;;;;;;;14.98;49.67;92329.47;5068855;28;20484;-72
2023/04/02 10:54:22;;;;;;;3.15;0.88;;;;;;;15.29;49.46;92365.69;5089526;28;20051;-73
2023/04/02 10:56:54;;;;;;;4.43;1.63;;;;;;;15.01;50.09;92357.41;5090309;28;20775;-72
2023/04/02 10:59:24;;;;;;;1.63;0.65;;;;;;;14.83;49.59;92371.59;5089888;28;20083;-72
2023/04/02 11:01:52;;;;;;;2.60;0.98;;;;;;;14.55;49.60;92345.16;5089598;28;20567;-73
2023/04/02 11:04:27;;;;;;;3.85;0.82;;;;;;;14.78;52.58;92362.03;5089071;28;20078;-72
2023/04/02 11:06:58;;;;;;;1.45;0.50;;;;;;;14.89;50.05;92351.69;5089827;28;20196;-72
2023/04/02 11:09:29;;;;;;;3.85;1.20;;;;;;;15.04;51.13;92346.53;5076030;28;20044;-73
2023/04/02 11:11:59;;;;;;;12.80;3.60;;;;;;;15.28;53.09;92358.94;5089695;28;20044;-72
2023/04/02 11:14:28;;;;;;;7.53;1.98;;;;;;;15.41;52.96;92351.72;5089801;28;20044;-73
2023/04/02 11:16:58;;;;;;;3.58;1.27;;;;;;;15.39;52.38;92317.53;5089644;28;20435;-73
2023/04/02 11:19:28;;;;;;;4.50;1.23;;;;;;;15.72;50.51;92352.44;5088988;28;20052;-73
2023/04/02 11:21:58;;;;;;;4.38;1.00;;;;;;;15.76;51.15;92337.16;5089295;28;20093;-73
2023/04/02 11:24:37;;;;;;;3.53;1.23;;;;;;;15.94;50.00;92355.75;5089858;28;20044;-72
2023/04/02 11:27:06;;;;;;;3.55;0.90;;;;;;;15.96;48.17;92343.34;5089079;28;20048;-73
2023/04/02 11:29:36;;;;;;;3.53;1.10;;;;;;;16.02;50.39;92340.44;5088977;28;20507;-73
2023/04/02 11:32:29;;;;;;;3.35;1.00;;;;;;;16.02;50.98;92340.44;5088866;28;20043;-72
2023/04/02 11:35:27;;;;;;;4.80;1.40;;;;;;;15.67;48.99;92334.31;5089342;28;20125;-73
2023/04/02 11:37:57;;;;;;;4.55;1.40;;;;;;;15.65;48.52;92320.09;5080637;28;20048;-72
2023/04/02 11:40:48;;;;;;;6.35;1.45;;;;;;;15.64;50.03;92329.66;5088440;28;20522;-72
2023/04/02 11:43:47;;;;;;;8.43;3.15;;;;;;;15.75;49.28;92333.00;5089448;28;20048;-73
2023/04/02 11:46:44;;;;;;;6.15;1.60;;;;;;;15.27;49.29;92338.53;5088858;28;20048;-72
2023/04/02 11:49:34;;;;;;;6.57;1.80;;;;;;;15.75;51.57;92322.66;5079772;28;20121;-72
2023/04/02 11:52:04;;;;;;;5.95;1.80;;;;;;;15.41;50.08;92338.78;5075691;28;20051;-72
2023/04/02 11:54:36;;;;;;;8.35;1.85;;;;;;;15.04;51.75;92343.94;5089000;28;20105;-72
2023/04/02 11:57:18;;;;;;;6.05;1.40;;;;;;;15.56;51.19;92314.66;5089105;28;20048;-72
2023/04/02 12:00:12;;;;;;;6.43;2.20;;;;;;;15.32;49.40;92323.00;5088981;28;20040;-72
2023/04/02 12:02:50;;;;;;;5.85;1.38;;;;;;;15.33;51.54;92329.72;5089229;28;20416;-73